• Join FlightAware (Why Join?)
  • Login
  • US Flag 
06:18PM EDT


 

Airport Tracker/Info


-or-


 

Live Flight TrackerFlight Track Log ✈ N201DA ✈ 07-Apr-2014 ✈ KBUF - KAVL

Flight Track Log - Related Links

Times and Time Zones

All times are in EDT time to prevent confusion due to time zone crossing. See the N201DA flight status page for this flight to view local times or setup timezone preferences in your user account.

Time Position Orientation Groundspeed Altitude Reporting Facility
EDT Latitude Longitude Course Direction KTS MPH feet Rate Location/Type
09:03AM 42.9333 -78.7167 180° South 63 72 1,100  Level Buffalo TRACON
09:03AM 42.9167 -78.7167 180° South 75 86 1,600 540 Climbing Buffalo TRACON
09:04AM 42.9000 -78.7000 144° Southeast 90 104 2,100 540 Climbing Buffalo TRACON
09:05AM 42.8833 -78.6833 144° Southeast 98 113 2,700 600 Climbing Buffalo TRACON
09:06AM 42.8500 -78.7000 200° South 96 110 3,400 540 Climbing Buffalo TRACON
09:07AM 42.8333 -78.7167 216° Southwest 96 110 3,800 480 Climbing Buffalo TRACON
09:08AM 42.8181 -78.7208 191° South 95 109 4,100 420 Climbing Cleveland Center
09:09AM 42.7894 -78.7419 208° Southwest 108 124 4,500 420 Climbing Cleveland Center
09:10AM 42.7594 -78.7603 204° Southwest 111 128 5,000 480 Climbing Cleveland Center
09:11AM 42.7283 -78.7764 201° Southwest 112 129 5,500 420 Climbing Cleveland Center
09:12AM 42.7003 -78.7936 204° Southwest 112 129 5,900 360 Climbing Cleveland Center
09:13AM 42.6706 -78.8133 206° Southwest 114 131 6,300 360 Climbing Cleveland Center
09:14AM 42.6392 -78.8314 203° Southwest 118 136 6,700 300 Climbing Cleveland Center
09:15AM 42.6081 -78.8542 208° Southwest 118 136 7,000 240 Climbing Cleveland Center
09:16AM 42.5739 -78.8764 206° Southwest 127 146 7,300 300 Climbing Cleveland Center
09:17AM 42.5422 -78.8967 205° Southwest 125 144 7,700 300 Climbing Cleveland Center
09:18AM 42.5111 -78.9167 205° Southwest 122 140 8,000 240 Climbing Cleveland Center
09:19AM 42.4814 -78.9361 206° Southwest 123 142 8,300 240 Climbing Cleveland Center
09:20AM 42.4494 -78.9597 209° Southwest 123 142 8,600 240 Climbing Cleveland Center
09:21AM 42.4189 -78.9811 207° Southwest 122 140 8,800 240 Climbing Cleveland Center
09:22AM 42.3867 -79.0006 204° Southwest 121 139 9,100 240 Climbing Cleveland Center
09:23AM 42.3550 -79.0161 200° South 119 137 9,300 180 Climbing Cleveland Center
09:24AM 42.3236 -79.0394 209° Southwest 120 138 9,500 180 Climbing Cleveland Center
09:25AM 42.2911 -79.0567 201° Southwest 120 138 9,700 120 Climbing Cleveland Center
09:26AM 42.2606 -79.0694 197° South 122 140 9,800 120 Climbing Cleveland Center
09:27AM 42.2281 -79.0900 205° Southwest 123 142 10,000 60 Climbing Cleveland Center
09:29AM 42.1961 -79.1083 203° Southwest 121 139 10,000  Level Cleveland Center
09:30AM 42.1636 -79.1292 205° Southwest 122 140 10,000  Level Cleveland Center
09:31AM 42.1333 -79.1519 209° Southwest 120 138 10,000  Level Cleveland Center
09:32AM 42.1019 -79.1733 207° Southwest 121 139 10,000  Level Cleveland Center
09:33AM 42.0700 -79.1972 209° Southwest 123 142 10,000  Level Cleveland Center
09:34AM 42.0400 -79.2167 206° Southwest 125 144 10,000  Level Cleveland Center
09:35AM 42.0058 -79.2381 205° Southwest 126 145 10,000 -60 Level Cleveland Center
09:36AM 41.9725 -79.2564 202° Southwest 126 145 9,900  Descending Cleveland Center
09:37AM 41.9403 -79.2758 204° Southwest 122 140 10,000  Climbing Cleveland Center
09:38AM 41.9108 -79.2928 203° Southwest 123 142 10,000  Level Cleveland Center
09:39AM 41.8789 -79.3106 203° Southwest 124 143 10,000  Level Cleveland Center
09:40AM 41.8428 -79.3336 205° Southwest 122 140 10,000  Level Cleveland Center
09:41AM 41.8100 -79.3433 192° South 121 139 10,000  Level Cleveland Center
09:42AM 41.7769 -79.3603 201° Southwest 124 143 10,000  Level Cleveland Center
09:43AM 41.7503 -79.3883 218° Southwest 124 143 10,000  Level Cleveland Center
09:44AM 41.7211 -79.4128 212° Southwest 124 143 10,000  Level Cleveland Center
09:45AM 41.6911 -79.4531 225° Southwest 125 144 10,000  Level Cleveland Center
09:46AM 41.6694 -79.4903 232° Southwest 128 147 10,000  Level Cleveland Center
09:47AM 41.6453 -79.5267 228° Southwest 129 148 10,100  Climbing Cleveland Center
09:48AM 41.6206 -79.5625 227° Southwest 132 152 10,000 -60 Descending Cleveland Center
09:49AM 41.5983 -79.5997 231° Southwest 132 152 10,000  Level Cleveland Center
09:50AM 41.5717 -79.6419 230° Southwest 129 148 10,000  Level Cleveland Center
09:51AM 41.5497 -79.6758 229° Southwest 125 144 10,000  Level Cleveland Center
09:52AM 41.5297 -79.7136 235° Southwest 125 144 10,000  Level Cleveland Center
09:53AM 41.5083 -79.7511 233° Southwest 126 145 10,100  Climbing Cleveland Center
09:54AM 41.4828 -79.7858 226° Southwest 127 146 10,000 -60 Descending Cleveland Center
09:55AM 41.4603 -79.8228 231° Southwest 128 147 10,000  Level Cleveland Center
09:56AM 41.4342 -79.8683 233° Southwest 129 148 10,000  Level Cleveland Center
09:57AM 41.4164 -79.9097 240° Southwest 129 148 10,000  Level Cleveland Center
09:58AM 41.3967 -79.9497 237° Southwest 130 150 10,000  Level Cleveland Center
10:00AM 41.3653 -79.9675 203° Southwest 125 144 10,100  Climbing Cleveland Center
10:01AM 41.3311 -79.9792 194° South 128 147 10,100 -120 Level Cleveland Center
10:02AM 41.2908 -79.9969 198° South 128 147 9,900 -120 Descending Cleveland Center
10:03AM 41.2561 -80.0114 197° South 129 148 9,900  Level Cleveland Center
10:04AM 41.2225 -80.0278 200° South 129 148 9,900  Level Cleveland Center
10:05AM 41.1881 -80.0442 200° South 130 150 9,900  Level Cleveland Center
10:06AM 41.1536 -80.0583 197° South 130 150 9,900  Level Cleveland Center
10:07AM 41.1208 -80.0758 202° Southwest 130 150 9,900  Level Cleveland Center
10:08AM 41.0833 -80.1031 209° Southwest 130 150 10,000  Climbing Cleveland Center
10:09AM 41.0525 -80.1156 197° South 121 139 9,900  Descending Cleveland Center
10:10AM 41.0239 -80.1389 212° Southwest 121 139 10,000  Climbing Cleveland Center
10:11AM 40.9931 -80.1536 200° South 120 138 9,900  Descending Cleveland Center
10:12AM 40.9628 -80.1606 190° South 116 133 10,000  Climbing Cleveland Center
10:13AM 40.9336 -80.1742 199° South 110 127 10,000  Level Cleveland Center
10:14AM 40.8964 -80.1881 196° South 112 129 10,000 -180 Level Cleveland Center
10:23AM 40.6258 -80.3175 200° South 128 147 8,300 -240 Descending Indianapolis Center
10:24AM 40.5877 -80.3066 196° South  Level FlightAware Approximate
10:24AM 40.5872 -80.3336 198° South 136 157 8,000  Level Indianapolis Center
10:25AM 40.5560 -80.3221 200° South  Level FlightAware Approximate
10:25AM 40.5508 -80.3472 196° South 137 158 8,000  Level Indianapolis Center
10:26AM 40.5243 -80.3375 200° South  Level FlightAware Approximate
10:26AM 40.5186 -80.3592 196° South 132 152 8,000  Level Indianapolis Center
10:27AM 40.4925 -80.3530 200° South  Level FlightAware Approximate
10:27AM 40.4878 -80.3800 207° Southwest 129 148 8,000  Level Indianapolis Center
10:28AM 40.4608 -80.3684 200° South  Level FlightAware Approximate
10:28AM 40.4581 -80.3894 194° South 119 137 7,900  Level Indianapolis Center
10:29AM 40.4291 -80.3838 200° South  Level FlightAware Approximate
10:29AM 40.4228 -80.4081 202° Southwest 117 135 8,000  Level Indianapolis Center
10:30AM 40.3911 -80.4242 201° Southwest 117 135 8,000  Level Indianapolis Center
10:31AM 40.3586 -80.4378 198° South 117 135 8,000  Level Indianapolis Center
10:32AM 40.3297 -80.4472 194° South 117 135 8,000  Level Indianapolis Center
10:34AM 40.3022 -80.4628 203° Southwest 111 128 8,000  Level Indianapolis Center
10:35AM 40.2692 -80.4792 201° Southwest 113 130 8,000  Level Indianapolis Center
10:36AM 40.2392 -80.4911 197° South 116 133 8,000  Level Indianapolis Center
10:37AM 40.2100 -80.5064 202° Southwest 115 132 8,000  Level Indianapolis Center
10:38AM 40.1728 -80.5211 197° South 116 133 8,000  Level Indianapolis Center
10:39AM 40.1422 -80.5358 200° South 117 135 8,000  Level Indianapolis Center
10:40AM 40.1036 -80.5544 200° South 117 135 8,000  Level Cleveland Center
10:41AM 40.0722 -80.5672 197° South 117 135 8,000  Level Cleveland Center
10:42AM 40.0425 -80.5822 201° Southwest 117 135 8,000  Level Cleveland Center
10:43AM 40.0042 -80.6000 200° South 119 137 8,000  Level Cleveland Center
10:44AM 39.9711 -80.6161 200° South 121 139 8,000  Level Cleveland Center
10:45AM 39.9408 -80.6328 203° Southwest 121 139 8,000  Level Cleveland Center
10:46AM 39.9103 -80.6472 200° South 121 139 8,000  Level Cleveland Center
10:47AM 39.8775 -80.6583 195° South 120 138 8,000  Level Cleveland Center
10:48AM 39.8436 -80.6725 198° South 124 143 8,100  Climbing Cleveland Center
10:49AM 39.8056 -80.6903 200° South 124 143 8,100  Level Cleveland Center
10:50AM 39.7739 -80.7022 196° South 124 143 8,100 -60 Level Cleveland Center
10:51AM 39.7422 -80.7131 195° South 122 140 8,000 -60 Descending Cleveland Center
10:52AM 39.7142 -80.7267 200° South 113 130 8,000  Level Cleveland Center
10:53AM 39.6853 -80.7428 203° Southwest 113 130 8,000  Level Cleveland Center
10:55AM 39.6306 -80.7667 199° South 113 130 8,100  Climbing Indianapolis Center
10:56AM 39.6014 -80.7808 201° Southwest 113 130 8,100 -60 Level Indianapolis Center
10:57AM 39.5711 -80.7958 201° Southwest 113 130 8,000 -60 Descending Indianapolis Center
10:58AM 39.5431 -80.8100 201° Southwest 113 130 8,000  Level Indianapolis Center
10:59AM 39.5136 -80.8247 201° Southwest 113 130 8,100  Climbing Indianapolis Center
11:00AM 39.4828 -80.8389 200° South 113 130 8,100 -60 Level Indianapolis Center
11:01AM 39.4511 -80.8511 197° South 113 130 8,000 -60 Descending Indianapolis Center
11:02AM 39.4156 -80.8650 197° South 113 130 8,000  Level Indianapolis Center
11:03AM 39.3833 -80.8822 202° Southwest 117 135 8,000  Level Indianapolis Center
11:04AM 39.3528 -80.8967 200° South 117 135 8,100  Climbing Indianapolis Center
11:05AM 39.3228 -80.9122 202° Southwest 117 135 8,000 -60 Descending Indianapolis Center
11:06AM 39.2903 -80.9214 192° South 117 135 8,000  Level Indianapolis Center
11:08AM 39.2578 -80.9319 194° South 117 135 8,100  Climbing Indianapolis Center
11:09AM 39.2261 -80.9428 195° South 117 135 8,000 -60 Descending Indianapolis Center
11:10AM 39.1897 -80.9583 198° South 117 135 8,000  Level Indianapolis Center
11:11AM 39.1608 -80.9736 202° Southwest 117 135 8,000  Level Indianapolis Center
11:12AM 39.1333 -80.9894 204° Southwest 116 133 8,000  Level Indianapolis Center
11:13AM 39.1050 -81.0039 202° Southwest 114 131 8,100 -60 Climbing Indianapolis Center
11:14AM 39.0792 -81.0156 199° South 113 130 7,900 -60 Descending Indianapolis Center
11:15AM 39.0478 -81.0272 196° South 111 128 8,000 60 Climbing Indianapolis Center
11:16AM 39.0208 -81.0397 200° South 109 125 8,100  Climbing Indianapolis Center
11:17AM 38.9922 -81.0525 199° South 108 124 8,100 -60 Level Indianapolis Center
11:18AM 38.9686 -81.0633 200° South 113 130 8,000  Descending Indianapolis Center
11:18AM 38.9644 -81.0631 177° South 108 124 8,100 60 Climbing Indianapolis Center
11:19AM 38.9308 -81.0789 200° South 108 124 8,100  Level Indianapolis Center
11:20AM 38.9022 -81.0933 201° Southwest 108 124 8,100 -60 Level Indianapolis Center
11:21AM 38.8739 -81.1078 202° Southwest 108 124 8,000 -60 Descending Indianapolis Center
11:22AM 38.8439 -81.1194 197° South 108 124 8,000  Level Indianapolis Center
11:22AM 38.8250 -81.1283 200° South 117 135 8,000  Level Indianapolis Center
11:23AM 38.8128 -81.1339 200° South 113 130 8,000  Level Indianapolis Center
11:24AM 38.7822 -81.1461 197° South 114 131 8,000  Level Indianapolis Center
11:25AM 38.7517 -81.1603 200° South 115 132 8,000  Level Indianapolis Center
11:26AM 38.7203 -81.1736 198° South 115 132 8,000 60 Level Indianapolis Center
11:26AM 38.7036 -81.1822 202° Southwest 119 137 8,100 60 Climbing Indianapolis Center
11:27AM 38.6889 -81.1897 202° Southwest 117 135 8,100 -120 Level Indianapolis Center
11:28AM 38.6500 -81.2050 197° South 118 136 8,000 -60 Descending Indianapolis Center
11:29AM 38.6183 -81.2192 199° South 118 136 8,000  Level Indianapolis Center
11:30AM 38.5858 -81.2322 197° South 119 137 8,000  Level Indianapolis Center
11:30AM 38.5736 -81.2350 190° South 127 146 8,000  Level Indianapolis Center
11:31AM 38.5536 -81.2472 206° Southwest 119 137 8,000  Level Indianapolis Center
11:32AM 38.5203 -81.2583 195° South 120 138 8,000  Level Indianapolis Center
11:33AM 38.4872 -81.2717 198° South 121 139 8,000  Level Indianapolis Center
11:34AM 38.4542 -81.2842 196° South 122 140 8,000  Level Indianapolis Center
11:34AM 38.4436 -81.2875 194° South 122 140 8,000  Level Indianapolis Center
11:35AM 38.4236 -81.3019 210° Southwest 122 140 8,000  Level Indianapolis Center
11:36AM 38.3914 -81.3133 195° South 121 139 8,000  Level Indianapolis Center
11:37AM 38.3594 -81.3275 199° South 121 139 8,100  Climbing Indianapolis Center
11:38AM 38.3286 -81.3367 193° South 123 142 8,000 -120 Descending Indianapolis Center
11:38AM 38.3211 -81.3425 211° Southwest 121 139 8,000  Level Indianapolis Center
11:39AM 38.2892 -81.3522 193° South 121 139 8,000 -60 Level Indianapolis Center
11:40AM 38.2586 -81.3661 200° South 120 138 7,900  Descending Indianapolis Center
11:41AM 38.2283 -81.3797 199° South 118 136 8,000  Climbing Indianapolis Center
11:42AM 38.2028 -81.3892 196° South 125 144 8,000  Level Indianapolis Center
11:42AM 38.1981 -81.3939 218° Southwest 117 135 8,000  Level Indianapolis Center
11:43AM 38.1683 -81.4072 199° South 117 135 8,000  Level Indianapolis Center
11:44AM 38.1386 -81.4208 200° South 115 132 8,000  Level Indianapolis Center
11:45AM 38.1078 -81.4350 200° South 115 132 8,000  Level Indianapolis Center
11:46AM 38.0831 -81.4428 194° South 115 132 8,000  Level Indianapolis Center
11:47AM 38.0772 -81.4458 202° Southwest 115 132 8,000  Level Indianapolis Center
11:48AM 38.0383 -81.4597 196° South 116 133 8,000  Level Indianapolis Center
11:49AM 38.0083 -81.4747 202° Southwest 116 133 8,000  Level Indianapolis Center
11:50AM 37.9778 -81.4942 207° Southwest 117 135 8,000  Level Indianapolis Center
11:51AM 37.9444 -81.5058 195° South 120 138 8,000 -60 Level Indianapolis Center
11:52AM 37.9125 -81.5181 197° South 121 139 7,900 -60 Descending Indianapolis Center
11:53AM 37.8792 -81.5308 197° South 121 139 7,900  Level Indianapolis Center
11:54AM 37.8486 -81.5439 199° South 117 135 7,900 -60 Level Indianapolis Center
11:55AM 37.8142 -81.5550 194° South 119 137 7,800 -60 Descending Indianapolis Center
11:56AM 37.7811 -81.5647 193° South 119 137 7,800  Level Indianapolis Center
11:57AM 37.7497 -81.5786 199° South 119 137 7,900 60 Climbing Indianapolis Center
11:58AM 37.7161 -81.5975 204° Southwest 118 136 8,000  Climbing Indianapolis Center
11:59AM 37.6858 -81.6092 197° South 115 132 8,000  Level Indianapolis Center
12:00PM 37.6542 -81.6186 193° South 115 132 8,100  Climbing Indianapolis Center
12:01PM 37.6261 -81.6342 204° Southwest 111 128 8,100 -60 Level Indianapolis Center
12:02PM 37.5961 -81.6464 198° South 111 128 8,000  Descending Indianapolis Center
12:03PM 37.5681 -81.6578 198° South 110 127 8,100  Climbing Indianapolis Center
12:04PM 37.5375 -81.6700 198° South 109 125 8,100 -60 Level Indianapolis Center
12:05PM 37.5017 -81.6833 196° South 111 128 8,000  Descending Indianapolis Center
12:07PM 37.4433 -81.7189 206° Southwest 115 132 8,100  Climbing Indianapolis Center
12:08PM 37.4139 -81.7353 204° Southwest 115 132 8,000  Descending Indianapolis Center
12:09PM 37.3808 -81.7469 196° South 116 133 8,100  Climbing Indianapolis Center
12:10PM 37.3481 -81.7578 195° South 120 138 8,000  Descending Indianapolis Center
12:12PM 37.2825 -81.7856 206° Southwest 118 136 8,100  Climbing Indianapolis Center
12:13PM 37.2506 -81.7936 191° South 117 135 8,000 -60 Descending Indianapolis Center
12:14PM 37.2197 -81.8058 198° South 117 135 8,000  Level Indianapolis Center
12:15PM 37.1897 -81.8169 196° South 117 135 8,100  Climbing Indianapolis Center
12:16PM 37.1611 -81.8319 203° Southwest 116 133 8,100  Level Indianapolis Center
12:17PM 37.1317 -81.8442 198° South 115 132 8,100 -60 Level Indianapolis Center
12:18PM 37.1019 -81.8542 195° South 112 129 8,000 -60 Descending Indianapolis Center
12:19PM 37.0711 -81.8619 191° South 112 129 8,000  Level Indianapolis Center
12:20PM 37.0378 -81.8764 199° South 111 128 8,100 -60 Climbing Indianapolis Center
12:21PM 37.0106 -81.8900 202° Southwest 108 124 7,900 -60 Descending Indianapolis Center
12:22PM 36.9833 -81.9022 200° South 108 124 8,000  Climbing Indianapolis Center
12:23PM 36.9528 -81.9103 192° South 107 123 7,900  Descending Indianapolis Center
12:25PM 36.9197 -81.9192 192° South 115 132 8,000  Climbing Indianapolis Center
12:27PM 36.8678 -81.9586 200° South 113 130 8,000 -60 Level Indianapolis Center
12:28PM 36.8331 -81.9744 200° South 113 130 7,900 -60 Descending Indianapolis Center
12:29PM 36.8039 -81.9839 195° South 112 129 7,900  Level Indianapolis Center
12:30PM 36.7722 -81.9950 196° South 112 129 8,000  Climbing Indianapolis Center
12:31PM 36.7403 -82.0053 194° South 113 130 7,900 -120 Descending Indianapolis Center